createdAt,value
2024-05-09T00:00:31.596Z,96728.50
2024-05-09T00:03:06.380Z,96729.75
2024-05-09T00:05:33.309Z,96733.31
2024-05-09T00:08:00.427Z,96719.81
2024-05-09T00:10:35.261Z,96732.16
2024-05-09T00:13:04.627Z,96727.22
2024-05-09T00:15:32.343Z,96726.88
2024-05-09T00:17:59.424Z,96722.88
2024-05-09T00:20:35.076Z,96735.66
2024-05-09T00:23:06.094Z,96732.41
2024-05-09T00:25:33.030Z,96727.63
2024-05-09T00:27:59.647Z,96734.59
2024-05-09T00:30:33.513Z,96726.63
2024-05-09T00:33:03.113Z,96724.28
2024-05-09T00:35:30.436Z,96729.38
2024-05-09T00:37:57.318Z,96723.19
2024-05-09T00:40:34.732Z,96718.19
2024-05-09T00:43:05.581Z,96711.78
2024-05-09T00:45:32.348Z,96707.13
2024-05-09T00:47:59.312Z,96706.13
2024-05-09T00:50:35.460Z,96696.66
2024-05-09T00:53:04.258Z,96711.28
2024-05-09T00:55:30.995Z,96693.06
2024-05-09T00:57:57.704Z,96730.25
2024-05-09T01:00:31.707Z,96685.31
2024-05-09T01:03:05.594Z,96688.69
2024-05-09T01:05:33.042Z,96692.03
2024-05-09T01:08:00.954Z,96686.28
2024-05-09T01:10:34.006Z,96690.06
2024-05-09T01:13:02.106Z,96699.25
2024-05-09T01:15:28.845Z,96689.16
2024-05-09T01:17:55.966Z,96696.31
2024-05-09T01:20:31.634Z,96709.59
2024-05-09T01:23:06.568Z,96706.47
2024-05-09T01:25:33.408Z,96694.41
2024-05-09T01:28:00.045Z,96698.06
2024-05-09T01:30:33.779Z,96698.56
2024-05-09T01:33:04.638Z,96699.31
2024-05-09T01:35:31.991Z,96703.00
2024-05-09T01:38:03.518Z,96706.88
2024-05-09T01:40:37.211Z,96713.28
2024-05-09T01:43:07.743Z,96713.22
2024-05-09T01:45:34.789Z,96703.06
2024-05-09T01:48:02.527Z,96715.94
2024-05-09T01:50:37.883Z,96711.13
2024-05-09T01:53:07.979Z,96711.97
2024-05-09T01:55:34.773Z,96715.88
2024-05-09T01:58:01.809Z,96709.50
2024-05-09T02:00:38.060Z,96697.00
2024-05-09T02:03:08.597Z,96707.72
2024-05-09T02:05:35.767Z,96714.47
2024-05-09T02:08:02.588Z,96718.84
2024-05-09T02:10:32.670Z,96714.47
2024-05-09T02:13:00.164Z,96719.69
2024-05-09T02:15:29.433Z,96706.84
2024-05-09T02:17:57.694Z,96708.34
2024-05-09T02:20:33.847Z,96712.34
2024-05-09T02:23:04.748Z,96716.31
2024-05-09T02:25:32.305Z,96719.44
2024-05-09T02:27:59.603Z,96720.69
2024-05-09T02:30:37.736Z,96719.72
2024-05-09T02:33:08.072Z,96723.91
2024-05-09T02:35:35.561Z,96724.00
2024-05-09T02:38:02.656Z,96723.50
2024-05-09T02:40:36.682Z,96721.59
2024-05-09T02:43:06.029Z,96716.81
2024-05-09T02:45:33.102Z,96716.88
2024-05-09T02:48:00.536Z,96719.69
2024-05-09T02:50:37.885Z,96720.09
2024-05-09T02:53:06.603Z,96707.25
2024-05-09T02:55:33.750Z,96721.34
2024-05-09T02:58:00.518Z,96714.00
2024-05-09T03:00:36.617Z,96702.09
2024-05-09T03:03:07.406Z,96708.53
2024-05-09T03:05:34.766Z,96703.19
2024-05-09T03:08:01.705Z,96705.78
2024-05-09T03:10:32.482Z,96697.78
2024-05-09T03:13:02.304Z,96711.72
2024-05-09T03:15:28.957Z,96717.16
2024-05-09T03:17:55.831Z,96717.06
2024-05-09T03:20:27.745Z,96722.50
2024-05-09T03:23:00.063Z,96720.66
2024-05-09T03:25:26.741Z,96719.22
2024-05-09T03:27:53.784Z,96713.75
2024-05-09T03:30:29.592Z,96719.09
2024-05-09T03:33:03.378Z,96720.81
2024-05-09T03:35:30.293Z,96720.91
2024-05-09T03:37:58.890Z,96716.44
2024-05-09T03:40:28.976Z,96721.84
2024-05-09T03:42:57.690Z,96726.53
2024-05-09T03:45:24.402Z,96727.06
2024-05-09T03:47:52.131Z,96721.06
2024-05-09T03:50:26.081Z,96728.28
2024-05-09T03:53:00.424Z,96732.63
2024-05-09T03:55:28.595Z,96725.03
2024-05-09T03:57:55.329Z,96731.16
2024-05-09T04:00:31.086Z,96736.16
2024-05-09T04:03:07.147Z,96732.28
2024-05-09T04:05:36.265Z,96738.31
2024-05-09T04:08:03.310Z,96739.72
2024-05-09T04:10:33.421Z,96738.59
2024-05-09T04:13:02.171Z,96738.56
2024-05-09T04:15:29.132Z,96744.84
2024-05-09T04:17:56.112Z,96740.56
2024-05-09T04:20:33.427Z,96744.22
2024-05-09T04:23:05.359Z,96738.97
2024-05-09T04:25:34.546Z,96743.72
2024-05-09T04:28:01.546Z,96744.72
2024-05-09T04:30:36.679Z,96757.31
2024-05-09T04:33:07.942Z,96749.19
2024-05-09T04:35:36.212Z,96758.25
2024-05-09T04:38:05.760Z,96758.56
2024-05-09T04:40:35.683Z,96762.03
2024-05-09T04:43:04.210Z,96754.59
2024-05-09T04:45:33.494Z,96751.56
2024-05-09T04:48:00.640Z,96749.47
2024-05-09T04:50:36.098Z,96753.09
2024-05-09T04:53:06.240Z,96747.97
2024-05-09T04:55:33.439Z,96753.63
2024-05-09T04:58:00.052Z,96750.44
2024-05-09T05:00:34.708Z,96745.53
2024-05-09T05:03:04.182Z,96751.41
2024-05-09T05:05:31.081Z,96757.28
2024-05-09T05:07:57.886Z,96758.44
2024-05-09T05:10:29.702Z,96758.66
2024-05-09T05:13:02.343Z,96751.81
2024-05-09T05:15:29.022Z,96748.31
2024-05-09T05:17:55.837Z,96756.44
2024-05-09T05:20:30.647Z,96753.75
2024-05-09T05:23:00.249Z,96758.69
2024-05-09T05:25:27.286Z,96754.50
2024-05-09T05:27:54.016Z,96768.25
2024-05-09T05:30:25.274Z,96760.25
2024-05-09T05:32:56.235Z,96758.94
2024-05-09T05:35:25.137Z,96768.91
2024-05-09T05:37:51.985Z,96760.72
2024-05-09T05:40:27.918Z,96765.69
2024-05-09T05:43:01.827Z,96773.00
2024-05-09T05:45:28.519Z,96759.31
2024-05-09T05:47:56.190Z,96761.28
2024-05-09T05:50:28.042Z,96757.75
2024-05-09T05:53:02.133Z,96758.97
2024-05-09T05:55:28.922Z,96753.75
2024-05-09T05:57:55.882Z,96759.75
2024-05-09T06:00:29.790Z,96763.41
2024-05-09T06:03:04.125Z,96764.59
2024-05-09T06:05:30.945Z,96766.22
2024-05-09T06:07:57.890Z,96762.75
2024-05-09T06:10:30.087Z,96766.88
2024-05-09T06:13:03.907Z,96758.50
2024-05-09T06:15:30.789Z,96763.84
2024-05-09T06:17:58.590Z,96759.47
2024-05-09T06:20:34.593Z,96754.06
2024-05-09T06:23:04.022Z,96758.13
2024-05-09T06:25:30.814Z,96760.06
2024-05-09T06:28:00.861Z,96779.03
2024-05-09T06:30:36.792Z,96764.22
2024-05-09T06:33:06.665Z,96764.50
2024-05-09T06:35:34.127Z,96771.53
2024-05-09T06:38:01.590Z,96777.25
2024-05-09T06:40:36.454Z,96773.72
2024-05-09T06:43:05.984Z,96778.78
2024-05-09T06:45:32.689Z,96769.53
2024-05-09T06:47:59.664Z,96781.69
2024-05-09T06:50:31.082Z,96785.00
2024-05-09T06:53:02.644Z,96772.28
2024-05-09T06:55:29.488Z,96779.06
2024-05-09T06:57:56.116Z,96773.41
2024-05-09T07:00:30.485Z,96785.16
2024-05-09T07:03:06.004Z,96778.28
2024-05-09T07:08:27.704Z,96772.72
2024-05-09T07:14:10.795Z,96759.72
2024-05-09T07:16:37.585Z,96769.94
2024-05-09T07:19:05.461Z,96770.88
2024-05-09T07:21:32.307Z,96766.06
2024-05-09T07:23:59.012Z,96767.09
2024-05-09T07:26:26.018Z,96762.16
2024-05-09T07:28:52.751Z,96748.34
2024-05-09T07:31:19.449Z,96750.53
2024-05-09T07:33:46.437Z,96756.94
2024-05-09T07:36:13.408Z,96766.38
2024-05-09T07:38:40.426Z,96762.28
2024-05-09T07:41:07.473Z,96755.22
2024-05-09T07:43:34.203Z,96761.41
2024-05-09T07:46:37.820Z,96771.41
2024-05-09T07:53:50.899Z,96750.44
2024-05-09T07:56:22.474Z,96765.28
2024-05-09T07:58:51.117Z,96763.13
2024-05-09T08:01:24.435Z,96760.59
2024-05-09T08:03:51.532Z,96751.16
2024-05-09T08:06:18.678Z,96758.59
2024-05-09T08:08:45.385Z,96747.44
2024-05-09T08:11:12.151Z,96737.00
2024-05-09T08:13:41.516Z,96736.53
2024-05-09T08:16:08.147Z,96737.75
2024-05-09T08:18:35.190Z,96741.56
2024-05-09T08:21:02.121Z,96748.16
2024-05-09T08:23:29.013Z,96736.06
2024-05-09T08:25:55.934Z,96728.22
2024-05-09T08:28:22.732Z,96733.84
2024-05-09T08:30:49.972Z,96734.75
2024-05-09T08:33:16.895Z,96735.63
2024-05-09T08:35:43.684Z,96736.66
2024-05-09T08:38:10.436Z,96730.88
2024-05-09T08:40:40.000Z,96732.94
2024-05-09T08:43:06.997Z,96725.22
2024-05-09T08:45:34.056Z,96728.09
2024-05-09T08:48:01.724Z,96738.06
2024-05-09T08:50:35.992Z,96721.91
2024-05-09T08:53:05.993Z,96730.16
2024-05-09T08:55:32.993Z,96735.34
2024-05-09T08:58:00.451Z,96726.06
2024-05-09T09:00:35.607Z,96724.72
2024-05-09T09:03:04.019Z,96733.22
2024-05-09T09:05:30.979Z,96729.25
2024-05-09T09:07:58.186Z,96735.66
2024-05-09T09:13:35.831Z,96732.00
2024-05-09T09:16:02.800Z,96729.88
2024-05-09T09:18:30.268Z,96730.44
2024-05-09T09:23:25.928Z,96735.06
2024-05-09T09:25:52.920Z,96729.66
2024-05-09T09:28:19.630Z,96725.75
2024-05-09T09:30:47.127Z,96724.66
2024-05-09T09:33:36.867Z,96725.22
2024-05-09T09:36:03.529Z,96736.19
2024-05-09T09:38:30.351Z,96737.22
2024-05-09T09:40:58.582Z,96733.06
2024-05-09T09:43:25.908Z,96721.31
2024-05-09T09:45:53.932Z,96724.34
2024-05-09T09:48:23.542Z,96734.25
2024-05-09T09:50:50.413Z,96735.91
2024-05-09T09:53:17.169Z,96736.91
2024-05-09T09:55:44.851Z,96726.50
2024-05-09T09:58:14.092Z,96726.41
2024-05-09T10:00:41.951Z,96733.03
2024-05-09T10:03:09.053Z,96723.25
2024-05-09T10:05:40.490Z,96721.31
2024-05-09T10:08:08.844Z,96721.69
2024-05-09T10:10:35.868Z,96714.59
2024-05-09T10:13:03.102Z,96713.47
2024-05-09T10:15:29.883Z,96718.09
2024-05-09T10:17:56.730Z,96711.06
2024-05-09T10:20:28.162Z,96708.22
2024-05-09T10:22:59.077Z,96711.41
2024-05-09T10:25:25.999Z,96719.00
2024-05-09T10:27:52.832Z,96708.25
2024-05-09T10:30:29.573Z,96719.97
2024-05-09T10:33:03.504Z,96713.84
2024-05-09T10:35:30.404Z,96704.56
2024-05-09T10:37:57.115Z,96713.34
2024-05-09T10:40:29.371Z,96703.13
2024-05-09T10:42:59.179Z,96708.50
2024-05-09T10:45:27.015Z,96702.09
2024-05-09T10:47:54.888Z,96705.84
2024-05-09T10:50:28.186Z,96703.22
2024-05-09T10:52:56.086Z,96706.44
2024-05-09T10:58:32.252Z,96704.25
2024-05-09T11:01:05.642Z,96698.34
2024-05-09T11:03:35.304Z,96693.00
2024-05-09T11:06:02.731Z,96692.66
2024-05-09T11:08:29.486Z,96691.88
2024-05-09T11:10:58.938Z,96684.88
2024-05-09T11:13:25.666Z,96686.28
2024-05-09T11:15:54.227Z,96676.72
2024-05-09T11:18:25.028Z,96674.75
2024-05-09T11:20:53.596Z,96672.41
2024-05-09T11:23:20.230Z,96668.50
2024-05-09T11:29:03.141Z,96672.31
2024-05-09T11:31:30.065Z,96670.16
2024-05-09T11:33:56.993Z,96671.56
2024-05-09T11:39:33.120Z,96671.44
2024-05-09T11:42:00.927Z,96665.19
2024-05-09T11:44:27.726Z,96662.41
2024-05-09T11:46:54.699Z,96667.66
2024-05-09T11:49:29.072Z,96666.19
2024-05-09T11:51:56.084Z,96668.13
2024-05-09T11:54:23.079Z,96666.66
2024-05-09T11:56:49.864Z,96661.56
2024-05-09T11:59:16.547Z,96656.75
2024-05-09T12:01:43.315Z,96658.00
2024-05-09T12:04:11.627Z,96655.31
2024-05-09T12:06:38.460Z,96659.28
2024-05-09T12:09:05.532Z,96649.13
2024-05-09T12:11:39.818Z,96644.97
2024-05-09T12:14:07.323Z,96654.25
2024-05-09T12:16:34.051Z,96653.84
2024-05-09T12:19:03.646Z,96646.81
2024-05-09T12:21:30.602Z,96642.66
2024-05-09T12:26:37.635Z,96641.75
2024-05-09T12:29:04.241Z,96634.13
2024-05-09T12:31:38.589Z,96626.47
2024-05-09T12:34:05.270Z,96631.53
2024-05-09T12:36:35.138Z,96623.13
2024-05-09T12:39:02.173Z,96614.44
2024-05-09T12:41:28.883Z,96628.34
2024-05-09T12:43:55.876Z,96629.38
2024-05-09T12:46:22.884Z,96630.63
2024-05-09T12:48:50.096Z,96632.53
2024-05-09T12:51:19.062Z,96620.38
2024-05-09T12:53:45.776Z,96623.56
2024-05-09T12:56:12.511Z,96616.91
2024-05-09T12:58:44.833Z,96621.56
2024-05-09T13:01:11.892Z,96611.78
2024-05-09T13:03:38.908Z,96621.22
2024-05-09T13:06:06.348Z,96604.19
2024-05-09T13:08:33.865Z,96605.59
2024-05-09T13:11:00.527Z,96605.31
2024-05-09T13:13:27.288Z,96596.16
2024-05-09T13:15:54.211Z,96608.56
2024-05-09T13:18:21.093Z,96609.00
2024-05-09T13:20:47.811Z,96606.84
2024-05-09T13:23:14.849Z,96607.88
2024-05-09T13:25:41.576Z,96596.75
2024-05-09T13:28:08.508Z,96596.38
2024-05-09T13:30:40.101Z,96596.63
2024-05-09T13:33:10.304Z,96594.09
2024-05-09T13:35:37.911Z,96588.81
2024-05-09T13:38:05.223Z,96584.56
2024-05-09T13:40:35.113Z,96579.59
2024-05-09T13:43:03.490Z,96582.47
2024-05-09T13:45:30.751Z,96594.16
2024-05-09T13:47:57.830Z,96582.41
2024-05-09T13:52:52.904Z,96576.63
2024-05-09T13:55:21.574Z,96579.91
2024-05-09T13:57:48.422Z,96573.91
2024-05-09T14:00:27.320Z,96580.13
2024-05-09T14:03:02.346Z,96572.81
2024-05-09T14:05:31.418Z,96570.28
2024-05-09T14:07:58.155Z,96569.38
2024-05-09T14:12:55.609Z,96566.88
2024-05-09T14:15:22.725Z,96576.22
2024-05-09T14:17:49.528Z,96577.31
2024-05-09T14:20:23.869Z,96565.78
2024-05-09T14:22:57.327Z,96564.84
2024-05-09T14:25:23.945Z,96566.00
2024-05-09T14:27:50.742Z,96561.03
2024-05-09T14:30:30.527Z,96583.28
2024-05-09T14:33:03.576Z,96564.84
2024-05-09T14:35:30.453Z,96564.38
2024-05-09T14:37:57.480Z,96572.63
2024-05-09T14:40:36.348Z,96570.22
2024-05-09T14:43:08.798Z,96559.41
2024-05-09T14:45:39.062Z,96568.56
2024-05-09T14:48:06.412Z,96556.00
2024-05-09T14:50:37.373Z,96557.59
2024-05-09T14:53:07.205Z,96563.34
2024-05-09T14:55:34.576Z,96556.63
2024-05-09T14:58:01.629Z,96554.63
2024-05-09T15:00:33.314Z,96554.88
2024-05-09T15:03:03.386Z,96553.19
2024-05-09T15:05:30.274Z,96546.69
2024-05-09T15:08:04.610Z,96553.72
2024-05-09T15:10:35.354Z,96546.06
2024-05-09T15:13:03.743Z,96544.91
2024-05-09T15:15:31.784Z,96561.56
2024-05-09T15:17:58.780Z,96549.31
2024-05-09T15:20:34.391Z,96541.75
2024-05-09T15:23:06.864Z,96546.06
2024-05-09T15:25:34.124Z,96538.69
2024-05-09T15:28:00.950Z,96549.25
2024-05-09T15:30:31.101Z,96542.25
2024-05-09T15:33:00.885Z,96537.47
2024-05-09T15:35:28.221Z,96540.28
2024-05-09T15:37:55.360Z,96547.03
2024-05-09T15:40:31.401Z,96543.28
2024-05-09T15:43:05.775Z,96538.06
2024-05-09T15:45:33.580Z,96538.38
2024-05-09T15:48:00.562Z,96549.41
2024-05-09T15:53:12.579Z,96535.75
2024-05-09T15:55:39.844Z,96529.63
2024-05-09T15:58:07.409Z,96539.47
2024-05-09T16:00:38.953Z,96542.16
2024-05-09T16:03:08.998Z,96529.56
2024-05-09T16:05:36.237Z,96528.25
2024-05-09T16:08:03.012Z,96535.00
2024-05-09T16:10:33.239Z,96522.69
2024-05-09T16:13:01.802Z,96520.31
2024-05-09T16:15:29.060Z,96515.88
2024-05-09T16:17:56.690Z,96523.31
2024-05-09T16:20:34.527Z,96518.97
2024-05-09T16:23:07.963Z,96520.59
2024-05-09T16:25:34.924Z,96520.53
2024-05-09T16:28:02.144Z,96513.53
2024-05-09T16:30:34.710Z,96525.75
2024-05-09T16:33:03.488Z,96517.44
2024-05-09T16:35:31.398Z,96509.50
2024-05-09T16:37:58.398Z,96523.88
2024-05-09T16:40:34.437Z,96506.34
2024-05-09T16:43:05.874Z,96515.94
2024-05-09T16:45:33.267Z,96515.41
2024-05-09T16:48:01.363Z,96504.19
2024-05-09T16:50:32.718Z,96510.88
2024-05-09T16:53:01.275Z,96509.72
2024-05-09T16:55:28.145Z,96507.75
2024-05-09T16:57:55.112Z,96516.13
2024-05-09T17:00:31.741Z,96511.06
2024-05-09T17:03:09.102Z,96515.03
2024-05-09T17:05:37.658Z,96509.81
2024-05-09T17:08:07.978Z,96510.31
2024-05-09T17:10:35.435Z,96506.97
2024-05-09T17:13:06.292Z,96512.31
2024-05-09T17:15:36.479Z,96506.06
2024-05-09T17:18:04.315Z,96511.47
2024-05-09T17:20:35.166Z,96520.59
2024-05-09T17:23:03.871Z,96506.41
2024-05-09T17:25:31.067Z,96507.81
2024-05-09T17:27:58.091Z,96501.09
2024-05-09T17:30:32.292Z,96513.78
2024-05-09T17:33:03.053Z,96512.47
2024-05-09T17:35:30.136Z,96510.72
2024-05-09T17:37:57.107Z,96509.25
2024-05-09T17:40:31.422Z,96512.44
2024-05-09T17:43:02.516Z,96507.25
2024-05-09T17:45:31.148Z,96513.69
2024-05-09T17:47:59.438Z,96505.31
2024-05-09T17:50:31.871Z,96514.38
2024-05-09T17:53:02.465Z,96510.50
2024-05-09T17:55:33.623Z,96514.16
2024-05-09T17:58:01.226Z,96517.91
2024-05-09T18:00:37.214Z,96512.13
2024-05-09T18:03:08.787Z,96517.25
2024-05-09T18:05:37.210Z,96518.47
2024-05-09T18:08:07.147Z,96521.13
2024-05-09T18:10:38.169Z,96510.94
2024-05-09T18:13:07.154Z,96519.38
2024-05-09T18:15:36.753Z,96522.88
2024-05-09T18:18:06.609Z,96519.47
2024-05-09T18:20:42.129Z,96510.66
2024-05-09T18:23:12.058Z,96523.16
2024-05-09T18:25:39.122Z,96521.69
2024-05-09T18:28:05.972Z,96524.97
2024-05-09T18:30:36.760Z,96526.03
2024-05-09T18:33:07.164Z,96520.25
2024-05-09T18:35:35.473Z,96509.31
2024-05-09T18:38:02.596Z,96514.50
2024-05-09T18:40:34.579Z,96501.91
2024-05-09T18:43:03.925Z,96512.28
2024-05-09T18:45:31.309Z,96511.63
2024-05-09T18:47:58.349Z,96511.97
2024-05-09T18:50:33.951Z,96510.06
2024-05-09T18:53:04.388Z,96519.66
2024-05-09T18:55:31.333Z,96510.78
2024-05-09T18:57:58.240Z,96509.03
2024-05-09T19:00:33.644Z,96506.66
2024-05-09T19:03:07.055Z,96515.81
2024-05-09T19:05:36.096Z,96520.25
2024-05-09T19:08:03.518Z,96521.44
2024-05-09T19:10:34.359Z,96528.19
2024-05-09T19:13:06.548Z,96523.16
2024-05-09T19:15:38.885Z,96523.63
2024-05-09T19:18:06.170Z,96532.00
2024-05-09T19:20:37.356Z,96529.66
2024-05-09T19:23:05.026Z,96531.59
2024-05-09T19:25:31.882Z,96521.28
2024-05-09T19:27:59.634Z,96539.38
2024-05-09T19:30:36.356Z,96536.69
2024-05-09T19:33:07.357Z,96533.94
2024-05-09T19:35:34.170Z,96537.63
2024-05-09T19:38:01.092Z,96535.84
2024-05-09T19:40:31.979Z,96537.94
2024-05-09T19:43:00.522Z,96541.75
2024-05-09T19:45:29.611Z,96541.34
2024-05-09T19:47:57.399Z,96532.78
2024-05-09T19:50:36.147Z,96546.97
2024-05-09T19:53:11.355Z,96551.81
2024-05-09T19:55:38.366Z,96545.66
2024-05-09T19:58:20.303Z,96546.53
2024-05-09T20:00:47.002Z,96542.66
2024-05-09T20:03:14.319Z,96544.63
2024-05-09T20:05:42.858Z,96542.44
2024-05-09T20:08:14.870Z,96543.59
2024-05-09T20:10:41.762Z,96547.91
2024-05-09T20:13:09.008Z,96543.78
2024-05-09T20:15:38.367Z,96546.59
2024-05-09T20:18:06.082Z,96549.88
2024-05-09T20:20:39.028Z,96548.78
2024-05-09T20:23:17.906Z,96554.72
2024-05-09T20:25:44.811Z,96554.59
2024-05-09T20:28:11.814Z,96561.75
2024-05-09T20:30:42.379Z,96569.34
2024-05-09T20:33:09.969Z,96560.28
2024-05-09T20:35:37.201Z,96562.25
2024-05-09T20:38:04.474Z,96568.59
2024-05-09T20:40:35.251Z,96567.66
2024-05-09T20:43:05.482Z,96562.56
2024-05-09T20:45:33.678Z,96559.16
2024-05-09T20:48:01.708Z,96553.03
2024-05-09T20:53:02.137Z,96573.03
2024-05-09T20:55:32.059Z,96568.72
2024-05-09T20:57:59.179Z,96563.00
2024-05-09T21:00:35.437Z,96565.44
2024-05-09T21:03:07.584Z,96556.56
2024-05-09T21:05:35.213Z,96559.47
2024-05-09T21:08:02.522Z,96556.81
2024-05-09T21:10:32.909Z,96561.19
2024-05-09T21:13:02.993Z,96557.44
2024-05-09T21:15:30.624Z,96554.53
2024-05-09T21:17:58.533Z,96549.13
2024-05-09T21:20:31.022Z,96551.41
2024-05-09T21:22:59.529Z,96550.19
2024-05-09T21:25:27.562Z,96551.75
2024-05-09T21:27:54.500Z,96555.78
2024-05-09T21:30:31.907Z,96560.75
2024-05-09T21:33:07.116Z,96554.84
2024-05-09T21:35:34.003Z,96558.06
2024-05-09T21:38:00.747Z,96561.66
2024-05-09T21:40:34.835Z,96558.25
2024-05-09T21:43:03.215Z,96564.88
2024-05-09T21:45:30.055Z,96556.81
2024-05-09T21:48:06.674Z,96557.34
2024-05-09T21:50:39.634Z,96548.38
2024-05-09T21:53:11.767Z,96557.84
2024-05-09T21:55:39.984Z,96557.75
2024-05-09T21:58:09.207Z,96562.94
2024-05-09T22:00:38.347Z,96562.13
2024-05-09T22:03:05.962Z,96566.41
2024-05-09T22:05:32.990Z,96563.09
2024-05-09T22:08:00.080Z,96568.00
2024-05-09T22:10:32.839Z,96564.84
2024-05-09T22:13:02.559Z,96563.91
2024-05-09T22:15:37.479Z,96561.72
2024-05-09T22:18:05.440Z,96569.22
2024-05-09T22:20:38.457Z,96560.75
2024-05-09T22:23:12.567Z,96557.78
2024-05-09T22:25:39.407Z,96561.06
2024-05-09T22:28:06.210Z,96567.97
2024-05-09T22:30:37.330Z,96564.28
2024-05-09T22:33:06.703Z,96564.31
2024-05-09T22:35:33.845Z,96564.25
2024-05-09T22:38:00.484Z,96571.03
2024-05-09T22:40:38.406Z,96568.91
2024-05-09T22:43:13.319Z,96561.47
2024-05-09T22:45:40.506Z,96568.00
2024-05-09T22:48:09.991Z,96572.44
2024-05-09T22:50:36.817Z,96564.75
2024-05-09T22:53:03.515Z,96570.78
2024-05-09T22:55:33.187Z,96572.00
2024-05-09T22:57:59.966Z,96579.09
2024-05-09T23:00:31.637Z,96567.94
2024-05-09T23:03:00.845Z,96570.81
2024-05-09T23:05:28.437Z,96573.19
2024-05-09T23:07:56.315Z,96564.00
2024-05-09T23:10:31.017Z,96571.50
2024-05-09T23:13:02.293Z,96566.94
2024-05-09T23:15:29.172Z,96574.00
2024-05-09T23:17:56.155Z,96570.94
2024-05-09T23:20:36.275Z,96571.00
2024-05-09T23:23:05.879Z,96570.06
2024-05-09T23:25:33.026Z,96571.50
2024-05-09T23:30:45.603Z,96568.53
2024-05-09T23:39:05.223Z,96574.78
2024-05-09T23:41:32.192Z,96569.56
2024-05-09T23:49:40.715Z,96565.06
2024-05-09T23:52:07.456Z,96566.25
2024-05-09T23:54:34.256Z,96560.75
2024-05-09T23:57:02.130Z,96556.56
2024-05-09T23:59:28.764Z,96567.09
